Share

Telsiai, Lithuania

2:36 AM EEST on April 24, 2014 (GMT +0300)
Liepaja International (EVLA) Elev 13 ft | 56.52 °N, 21.10 °E | Change Station

Current weather conditions updated 16 minutes ago

Clear
Clear
45 °F
Feels Like 38 °F
N
13
Wind Variable Wind from ENE
Sunrise 6:04 AM
Sunset 8:55 PM
Moon Waning Crescent

Today is forecast to be Much Cooler than yesterday.

Pressure 30.36 in
Visibility -9999.0 miles
Clouds
Windchill 38 °F
Dew Point 25 °F
Humidity 46%
Rainfall 0.00 in
Snow Depth Not available.
UV Not available.
Pollen Not available.
Air Quality Not available.
Flu Activity Not available.
METAR EVLA 232320Z AUTO 06011KT CAVOK 07/M04 Q1028

More Conditions Fewer Conditions

Pressure 30.36 in
Visibility -9999.0 miles
Clouds
Windchill 38 °F
Dew Point 25 °F
Humidity 46%
Rainfall 0.00 in
Snow Depth Not available.
UV Not available.
Pollen Not available.
Air Quality Not available.
Flu Activity Not available.
METAR EVLA 232320Z AUTO 06011KT CAVOK 07/M04 Q1028

More Conditions Fewer Conditions

10-Day Weather Forecast

Almanac

Astronomy

Apr. 24, 2014 Rise Set
Actual Time 6:04 AM EEST 8:55 PM EEST
Civil Twilight 5:21 AM EEST 9:38 PM EEST
Nautical Twilight 4:26 AM EEST 10:34 PM EEST
Astronomical Twilight 3:11 AM EEST 11:51 PM EEST
Moon 4:02 AM EEST (4/24) 2:55 PM EEST (4/24)
Length of Visible Light 16h 16m
Length of Day
14h 51m
Tomorrow will be 4m 25s longer.
Waning Crescent, 31% of the Moon is Illuminated
Apr 23
Waning Crescent
Apr 29
New
May 6
First Quarter
May 14
Full
May 21
Last Quarter

Yesterday's Extremes

Country Highs Country Lows

Community

  • Nestled In
    Nestled In
  • Stunning Sunrise
    Stunning Sunrise
  • spring flowers
    spring flowers
  • Earth Day Spectrum Ove' Blue
    Earth Day Spectrum Ove' Blue
  • BARN B&W
    BARN B&W

WunderPhotos

Upload Photos

1,704,457 photos uploaded!

WunderBlogs® & News

Nearby

Snow Depth

Not available.

Coastal Water Temperatures

Place Temperature
No Stations Reporting

Earthquake Activity

City Distance Mag. Time & Date
No recent earthquake activity has been reported nearby.
Minimum magnitude displayed is 2.5.

Nearby Weather Stations

There are no personal weather stations in this area.

What do you think?

We're not finished. Please let us know what you like, what you don't like, and what you are still missing.